sensor_id;sensor_type;location;lat;lon;timestamp;pressure;altitude;pressure_sealevel;temperature
76583;BMP280;65462;52.148;7.940;2023-01-31T00:00:47;101370.00;;;4.80
76583;BMP280;65462;52.148;7.940;2023-01-31T00:03:12;101359.03;;;4.83
76583;BMP280;65462;52.148;7.940;2023-01-31T00:05:37;101357.44;;;4.82
76583;BMP280;65462;52.148;7.940;2023-01-31T00:08:03;101350.09;;;4.79
76583;BMP280;65462;52.148;7.940;2023-01-31T00:10:28;101346.19;;;4.81
76583;BMP280;65462;52.148;7.940;2023-01-31T00:12:53;101340.19;;;4.81
76583;BMP280;65462;52.148;7.940;2023-01-31T00:15:18;101342.75;;;4.76
76583;BMP280;65462;52.148;7.940;2023-01-31T00:17:44;101345.94;;;4.78
76583;BMP280;65462;52.148;7.940;2023-01-31T00:20:10;101372.88;;;4.78
76583;BMP280;65462;52.148;7.940;2023-01-31T00:22:36;101357.16;;;4.78
76583;BMP280;65462;52.148;7.940;2023-01-31T00:25:01;101363.19;;;4.79
76583;BMP280;65462;52.148;7.940;2023-01-31T00:27:26;101357.16;;;4.78
76583;BMP280;65462;52.148;7.940;2023-01-31T00:29:52;101360.03;;;4.77
76583;BMP280;65462;52.148;7.940;2023-01-31T00:32:17;101368.41;;;4.79
76583;BMP280;65462;52.148;7.940;2023-01-31T00:34:43;101366.34;;;4.81
76583;BMP280;65462;52.148;7.940;2023-01-31T00:37:08;101362.66;;;4.77
76583;BMP280;65462;52.148;7.940;2023-01-31T00:39:33;101355.34;;;4.79
76583;BMP280;65462;52.148;7.940;2023-01-31T00:41:58;101355.88;;;4.81
76583;BMP280;65462;52.148;7.940;2023-01-31T00:44:24;101343.84;;;4.80
76583;BMP280;65462;52.148;7.940;2023-01-31T00:46:49;101349.28;;;4.73
76583;BMP280;65462;52.148;7.940;2023-01-31T00:49:14;101354.25;;;4.75
76583;BMP280;65462;52.148;7.940;2023-01-31T00:51:39;101356.91;;;4.70
76583;BMP280;65462;52.148;7.940;2023-01-31T00:54:05;101353.75;;;4.68
76583;BMP280;65462;52.148;7.940;2023-01-31T00:56:30;101357.66;;;4.65
76583;BMP280;65462;52.148;7.940;2023-01-31T00:58:55;101352.63;;;4.59
76583;BMP280;65462;52.148;7.940;2023-01-31T01:01:23;101354.22;;;4.60
76583;BMP280;65462;52.148;7.940;2023-01-31T01:03:50;101362.13;;;4.65
76583;BMP280;65462;52.148;7.940;2023-01-31T01:06:15;101377.03;;;4.64
76583;BMP280;65462;52.148;7.940;2023-01-31T01:08:42;101366.28;;;4.61
76583;BMP280;65462;52.148;7.940;2023-01-31T01:11:09;101352.13;;;4.57
76583;BMP280;65462;52.148;7.940;2023-01-31T01:13:35;101361.00;;;4.56
76583;BMP280;65462;52.148;7.940;2023-01-31T01:16:19;101367.56;;;4.58
76583;BMP280;65462;52.148;7.940;2023-01-31T01:18:44;101367.81;;;4.52
76583;BMP280;65462;52.148;7.940;2023-01-31T01:21:18;101363.09;;;4.48
76583;BMP280;65462;52.148;7.940;2023-01-31T01:23:44;101371.41;;;4.40
76583;BMP280;65462;52.148;7.940;2023-01-31T01:26:16;101370.06;;;4.33
76583;BMP280;65462;52.148;7.940;2023-01-31T01:28:42;101377.66;;;4.29
76583;BMP280;65462;52.148;7.940;2023-01-31T01:31:09;101369.75;;;4.24
76583;BMP280;65462;52.148;7.940;2023-01-31T01:33:35;101365.81;;;4.22
76583;BMP280;65462;52.148;7.940;2023-01-31T01:36:02;101382.50;;;4.16
76583;BMP280;65462;52.148;7.940;2023-01-31T01:38:28;101383.28;;;4.11
76583;BMP280;65462;52.148;7.940;2023-01-31T01:40:53;101389.81;;;4.09
76583;BMP280;65462;52.148;7.940;2023-01-31T01:43:18;101389.78;;;4.04
76583;BMP280;65462;52.148;7.940;2023-01-31T01:45:44;101388.22;;;4.08
76583;BMP280;65462;52.148;7.940;2023-01-31T01:48:15;101382.69;;;4.04
76583;BMP280;65462;52.148;7.940;2023-01-31T01:50:45;101378.56;;;4.08
76583;BMP280;65462;52.148;7.940;2023-01-31T01:53:18;101378.81;;;4.07
76583;BMP280;65462;52.148;7.940;2023-01-31T01:55:52;101378.25;;;4.05
76583;BMP280;65462;52.148;7.940;2023-01-31T02:00:48;101386.88;;;4.05
76583;BMP280;65462;52.148;7.940;2023-01-31T02:03:15;101380.34;;;4.03
76583;BMP280;65462;52.148;7.940;2023-01-31T02:05:41;101387.63;;;4.01
76583;BMP280;65462;52.148;7.940;2023-01-31T02:08:07;101382.66;;;3.99
76583;BMP280;65462;52.148;7.940;2023-01-31T02:10:44;101389.41;;;3.95
76583;BMP280;65462;52.148;7.940;2023-01-31T02:13:12;101391.00;;;3.96
76583;BMP280;65462;52.148;7.940;2023-01-31T02:15:38;101394.38;;;3.92
76583;BMP280;65462;52.148;7.940;2023-01-31T02:18:04;101391.44;;;3.83
76583;BMP280;65462;52.148;7.940;2023-01-31T02:20:39;101399.50;;;3.81
76583;BMP280;65462;52.148;7.940;2023-01-31T02:26:31;101409.63;;;3.73
76583;BMP280;65462;52.148;7.940;2023-01-31T02:40:19;101419.66;;;3.54
76583;BMP280;65462;52.148;7.940;2023-01-31T02:43:05;101427.72;;;3.53
76583;BMP280;65462;52.148;7.940;2023-01-31T02:45:40;101418.56;;;3.50
76583;BMP280;65462;52.148;7.940;2023-01-31T02:50:56;101408.47;;;3.32
76583;BMP280;65462;52.148;7.940;2023-01-31T02:53:31;101408.69;;;3.30
76583;BMP280;65462;52.148;7.940;2023-01-31T02:58:41;101401.84;;;3.24
76583;BMP280;65462;52.148;7.940;2023-01-31T03:01:11;101392.44;;;3.23
76583;BMP280;65462;52.148;7.940;2023-01-31T03:03:38;101401.84;;;3.24
76583;BMP280;65462;52.148;7.940;2023-01-31T03:11:26;101388.69;;;3.14
76583;BMP280;65462;52.148;7.940;2023-01-31T03:14:16;101376.41;;;3.10
76583;BMP280;65462;52.148;7.940;2023-01-31T03:17:14;101371.44;;;3.13
76583;BMP280;65462;52.148;7.940;2023-01-31T03:20:08;101352.34;;;3.08
76583;BMP280;65462;52.148;7.940;2023-01-31T03:22:38;101356.22;;;3.05
76583;BMP280;65462;52.148;7.940;2023-01-31T03:25:09;101361.84;;;2.97
76583;BMP280;65462;52.148;7.940;2023-01-31T03:27:36;101353.00;;;2.98
76583;BMP280;65462;52.148;7.940;2023-01-31T03:30:12;101352.22;;;2.98
76583;BMP280;65462;52.148;7.940;2023-01-31T03:32:53;101355.88;;;2.97
76583;BMP280;65462;52.148;7.940;2023-01-31T03:35:23;101347.47;;;2.90
76583;BMP280;65462;52.148;7.940;2023-01-31T03:37:56;101344.56;;;2.86
76583;BMP280;65462;52.148;7.940;2023-01-31T03:40:30;101347.16;;;2.86
76583;BMP280;65462;52.148;7.940;2023-01-31T03:43:11;101338.31;;;2.87
76583;BMP280;65462;52.148;7.940;2023-01-31T03:45:46;101343.53;;;2.87
76583;BMP280;65462;52.148;7.940;2023-01-31T03:48:14;101343.75;;;2.86
76583;BMP280;65462;52.148;7.940;2023-01-31T03:50:49;101335.13;;;2.85
76583;BMP280;65462;52.148;7.940;2023-01-31T03:53:21;101341.41;;;2.84
76583;BMP280;65462;52.148;7.940;2023-01-31T03:55:56;101335.13;;;2.85
76583;BMP280;65462;52.148;7.940;2023-01-31T03:58:26;101332.53;;;2.85
76583;BMP280;65462;52.148;7.940;2023-01-31T04:00:53;101320.28;;;2.86
76583;BMP280;65462;52.148;7.940;2023-01-31T04:03:29;101320.81;;;2.88
76583;BMP280;65462;52.148;7.940;2023-01-31T04:05:56;101319.00;;;2.88
76583;BMP280;65462;52.148;7.940;2023-01-31T04:08:22;101322.41;;;2.89
76583;BMP280;65462;52.148;7.940;2023-01-31T04:10:48;101327.38;;;2.90
76583;BMP280;65462;52.148;7.940;2023-01-31T04:13:14;101316.16;;;2.90
76583;BMP280;65462;52.148;7.940;2023-01-31T04:15:39;101312.75;;;2.89
76583;BMP280;65462;52.148;7.940;2023-01-31T04:18:04;101315.91;;;2.91
76583;BMP280;65462;52.148;7.940;2023-01-31T04:20:30;101316.84;;;2.80
76583;BMP280;65462;52.148;7.940;2023-01-31T04:22:55;101326.34;;;2.91
76583;BMP280;65462;52.148;7.940;2023-01-31T04:25:20;101325.81;;;2.89
76583;BMP280;65462;52.148;7.940;2023-01-31T04:27:46;101302.72;;;2.81
76583;BMP280;65462;52.148;7.940;2023-01-31T04:30:11;101306.75;;;2.89
76583;BMP280;65462;52.148;7.940;2023-01-31T04:32:36;101322.88;;;2.86
76583;BMP280;65462;52.148;7.940;2023-01-31T04:35:02;101299.09;;;2.82
76583;BMP280;65462;52.148;7.940;2023-01-31T04:37:27;101293.66;;;2.84
76583;BMP280;65462;52.148;7.940;2023-01-31T04:39:53;101293.66;;;2.84
76583;BMP280;65462;52.148;7.940;2023-01-31T04:42:18;101294.97;;;2.86
76583;BMP280;65462;52.148;7.940;2023-01-31T04:44:43;101290.84;;;2.90
76583;BMP280;65462;52.148;7.940;2023-01-31T04:47:08;101284.34;;;2.93
76583;BMP280;65462;52.148;7.940;2023-01-31T04:49:34;101282.50;;;2.93
76583;BMP280;65462;52.148;7.940;2023-01-31T04:51:59;101287.72;;;2.93
76583;BMP280;65462;52.148;7.940;2023-01-31T04:54:24;101276.25;;;2.94
76583;BMP280;65462;52.148;7.940;2023-01-31T04:56:49;101280.69;;;2.94
76583;BMP280;65462;52.148;7.940;2023-01-31T04:59:15;101279.13;;;2.93
76583;BMP280;65462;52.148;7.940;2023-01-31T05:01:40;101274.72;;;2.98
76583;BMP280;65462;52.148;7.940;2023-01-31T05:04:06;101272.38;;;2.97
76583;BMP280;65462;52.148;7.940;2023-01-31T05:06:31;101254.94;;;3.02
76583;BMP280;65462;52.148;7.940;2023-01-31T05:08:56;101236.38;;;2.99
76583;BMP280;65462;52.148;7.940;2023-01-31T05:11:26;101247.16;;;3.07
76583;BMP280;65462;52.148;7.940;2023-01-31T05:13:51;101245.09;;;3.09
76583;BMP280;65462;52.148;7.940;2023-01-31T05:16:17;101239.09;;;3.09
76583;BMP280;65462;52.148;7.940;2023-01-31T05:18:42;101241.75;;;3.14
76583;BMP280;65462;52.148;7.940;2023-01-31T05:21:07;101230.50;;;3.13
76583;BMP280;65462;52.148;7.940;2023-01-31T05:23:33;101234.25;;;3.22
76583;BMP280;65462;52.148;7.940;2023-01-31T05:25:58;101216.50;;;3.24
76583;BMP280;65462;52.148;7.940;2023-01-31T05:28:24;101221.19;;;3.22
76583;BMP280;65462;52.148;7.940;2023-01-31T05:30:51;101217.78;;;3.22
76583;BMP280;65462;52.148;7.940;2023-01-31T05:33:16;101223.31;;;3.25
76583;BMP280;65462;52.148;7.940;2023-01-31T05:35:45;101226.97;;;3.29
76583;BMP280;65462;52.148;7.940;2023-01-31T05:38:10;101230.63;;;3.28
76583;BMP280;65462;52.148;7.940;2023-01-31T05:40:35;101228.31;;;3.32
76583;BMP280;65462;52.148;7.940;2023-01-31T05:43:01;101228.06;;;3.33
76583;BMP280;65462;52.148;7.940;2023-01-31T05:45:27;101221.81;;;3.35
76583;BMP280;65462;52.148;7.940;2023-01-31T05:47:52;101220.81;;;3.41
76583;BMP280;65462;52.148;7.940;2023-01-31T05:50:18;101216.09;;;3.38
76583;BMP280;65462;52.148;7.940;2023-01-31T05:52:52;101214.28;;;3.43
76583;BMP280;65462;52.148;7.940;2023-01-31T05:55:18;101211.19;;;3.46
76583;BMP280;65462;52.148;7.940;2023-01-31T05:57:43;101203.34;;;3.46
76583;BMP280;65462;52.148;7.940;2023-01-31T06:00:09;101205.19;;;3.51
76583;BMP280;65462;52.148;7.940;2023-01-31T06:02:34;101197.09;;;3.52
76583;BMP280;65462;52.148;7.940;2023-01-31T06:05:00;101191.66;;;3.59
76583;BMP280;65462;52.148;7.940;2023-01-31T06:07:25;101192.94;;;3.56
76583;BMP280;65462;52.148;7.940;2023-01-31T06:09:50;101187.50;;;3.58
76583;BMP280;65462;52.148;7.940;2023-01-31T06:12:15;101193.25;;;3.60
76583;BMP280;65462;52.148;7.940;2023-01-31T06:14:41;101197.72;;;3.64
76583;BMP280;65462;52.148;7.940;2023-01-31T06:17:06;101196.44;;;3.67
76583;BMP280;65462;52.148;7.940;2023-01-31T06:19:32;101188.81;;;3.65
76583;BMP280;65462;52.148;7.940;2023-01-31T06:21:57;101191.19;;;3.67
76583;BMP280;65462;52.148;7.940;2023-01-31T06:24:22;101199.53;;;3.64
76583;BMP280;65462;52.148;7.940;2023-01-31T06:26:47;101197.47;;;3.66
76583;BMP280;65462;52.148;7.940;2023-01-31T06:29:13;101188.09;;;3.70
76583;BMP280;65462;52.148;7.940;2023-01-31T06:31:38;101195.94;;;3.70
76583;BMP280;65462;52.148;7.940;2023-01-31T06:34:03;101193.81;;;3.72
76583;BMP280;65462;52.148;7.940;2023-01-31T06:36:31;101193.03;;;3.71
76583;BMP280;65462;52.148;7.940;2023-01-31T06:38:58;101195.66;;;3.71
76583;BMP280;65462;52.148;7.940;2023-01-31T06:41:23;101201.94;;;3.75
76583;BMP280;65462;52.148;7.940;2023-01-31T06:43:48;101192.78;;;3.73
76583;BMP280;65462;52.148;7.940;2023-01-31T06:46:15;101198.53;;;3.75
76583;BMP280;65462;52.148;7.940;2023-01-31T06:48:40;101198.28;;;3.76
76583;BMP280;65462;52.148;7.940;2023-01-31T06:51:05;101202.47;;;3.77
76583;BMP280;65462;52.148;7.940;2023-01-31T06:53:31;101197.50;;;3.76
76583;BMP280;65462;52.148;7.940;2023-01-31T06:55:56;101191.25;;;3.77
76583;BMP280;65462;52.148;7.940;2023-01-31T06:58:21;101194.94;;;3.81
76583;BMP280;65462;52.148;7.940;2023-01-31T07:00:47;101188.13;;;3.80
76583;BMP280;65462;52.148;7.940;2023-01-31T07:03:12;101181.31;;;3.79
76583;BMP280;65462;52.148;7.940;2023-01-31T07:05:37;101185.50;;;3.80
76583;BMP280;65462;52.148;7.940;2023-01-31T07:08:03;101172.44;;;3.80
76583;BMP280;65462;52.148;7.940;2023-01-31T07:10:28;101190.22;;;3.83
76583;BMP280;65462;52.148;7.940;2023-01-31T07:12:53;101182.66;;;3.86
76583;BMP280;65462;52.148;7.940;2023-01-31T07:15:18;101184.25;;;3.87
76583;BMP280;65462;52.148;7.940;2023-01-31T07:17:44;101179.28;;;3.86
76583;BMP280;65462;52.148;7.940;2023-01-31T07:20:09;101174.56;;;3.93
76583;BMP280;65462;52.148;7.940;2023-01-31T07:22:35;101165.69;;;3.94
76583;BMP280;65462;52.148;7.940;2023-01-31T07:25:00;101163.09;;;3.99
76583;BMP280;65462;52.148;7.940;2023-01-31T07:27:26;101161.53;;;3.98
76583;BMP280;65462;52.148;7.940;2023-01-31T07:29:51;101161.56;;;4.03
76583;BMP280;65462;52.148;7.940;2023-01-31T07:32:16;101161.84;;;4.07
76583;BMP280;65462;52.148;7.940;2023-01-31T07:34:42;101149.28;;;4.09
76583;BMP280;65462;52.148;7.940;2023-01-31T07:37:07;101145.88;;;4.03
76583;BMP280;65462;52.148;7.940;2023-01-31T07:39:32;101165.78;;;4.19
76583;BMP280;65462;52.148;7.940;2023-01-31T07:41:57;101160.84;;;4.23
76583;BMP280;65462;52.148;7.940;2023-01-31T07:44:23;101157.94;;;4.24
76583;BMP280;65462;52.148;7.940;2023-01-31T07:46:48;101151.69;;;4.30
76583;BMP280;65462;52.148;7.940;2023-01-31T07:49:15;101147.53;;;4.34
76583;BMP280;65462;52.148;7.940;2023-01-31T07:51:40;101144.38;;;4.37
76583;BMP280;65462;52.148;7.940;2023-01-31T07:54:06;101132.34;;;4.41
76583;BMP280;65462;52.148;7.940;2023-01-31T07:56:33;101124.78;;;4.45
76583;BMP280;65462;52.148;7.940;2023-01-31T07:58:58;101125.06;;;4.48
76583;BMP280;65462;52.148;7.940;2023-01-31T08:01:25;101120.09;;;4.52
76583;BMP280;65462;52.148;7.940;2023-01-31T08:04:11;101112.50;;;4.51
76583;BMP280;65462;52.148;7.940;2023-01-31T08:06:38;101117.72;;;4.66
76583;BMP280;65462;52.148;7.940;2023-01-31T08:09:03;101120.88;;;4.68
76583;BMP280;65462;52.148;7.940;2023-01-31T08:11:29;101117.19;;;4.74
76583;BMP280;65462;52.148;7.940;2023-01-31T08:13:54;101122.41;;;4.74
76583;BMP280;65462;52.148;7.940;2023-01-31T08:16:20;101112.72;;;4.79
76583;BMP280;65462;52.148;7.940;2023-01-31T08:18:46;101113.00;;;4.83
76583;BMP280;65462;52.148;7.940;2023-01-31T08:21:12;101106.19;;;4.82
76583;BMP280;65462;52.148;7.940;2023-01-31T08:23:38;101110.13;;;4.84
76583;BMP280;65462;52.148;7.940;2023-01-31T08:26:07;101108.28;;;4.85
76583;BMP280;65462;52.148;7.940;2023-01-31T08:28:35;101096.50;;;4.82
76583;BMP280;65462;52.148;7.940;2023-01-31T08:31:01;101095.44;;;4.88
76583;BMP280;65462;52.148;7.940;2023-01-31T08:33:26;101085.25;;;4.87
76583;BMP280;65462;52.148;7.940;2023-01-31T08:35:52;101087.88;;;4.87
76583;BMP280;65462;52.148;7.940;2023-01-31T08:38:17;101077.91;;;4.89
76583;BMP280;65462;52.148;7.940;2023-01-31T08:40:43;101075.56;;;4.87
76583;BMP280;65462;52.148;7.940;2023-01-31T08:43:08;101068.50;;;4.88
76583;BMP280;65462;52.148;7.940;2023-01-31T08:45:33;101070.84;;;4.89
76583;BMP280;65462;52.148;7.940;2023-01-31T08:47:59;101061.69;;;4.87
76583;BMP280;65462;52.148;7.940;2023-01-31T08:50:26;101064.03;;;4.88
76583;BMP280;65462;52.148;7.940;2023-01-31T08:52:53;101061.69;;;4.87
76583;BMP280;65462;52.148;7.940;2023-01-31T08:55:19;101064.84;;;4.89
76583;BMP280;65462;52.148;7.940;2023-01-31T08:57:44;101061.94;;;4.90
76583;BMP280;65462;52.148;7.940;2023-01-31T09:00:10;101049.66;;;4.86
76583;BMP280;65462;52.148;7.940;2023-01-31T09:02:36;101053.81;;;4.92
76583;BMP280;65462;52.148;7.940;2023-01-31T09:05:01;101043.88;;;4.94
76583;BMP280;65462;52.148;7.940;2023-01-31T09:07:26;101047.78;;;4.91
76583;BMP280;65462;52.148;7.940;2023-01-31T09:09:52;101045.16;;;4.91
76583;BMP280;65462;52.148;7.940;2023-01-31T09:12:17;101045.16;;;4.91
76583;BMP280;65462;52.148;7.940;2023-01-31T09:14:42;101055.09;;;4.94
76583;BMP280;65462;52.148;7.940;2023-01-31T09:17:07;101056.16;;;4.93
76583;BMP280;65462;52.148;7.940;2023-01-31T09:19:35;101049.63;;;4.96
76583;BMP280;65462;52.148;7.940;2023-01-31T09:22:00;101043.09;;;4.93
76583;BMP280;65462;52.148;7.940;2023-01-31T09:24:25;101040.72;;;4.97
76583;BMP280;65462;52.148;7.940;2023-01-31T09:26:50;101028.16;;;4.94
76583;BMP280;65462;52.148;7.940;2023-01-31T09:29:18;101030.75;;;4.99
76583;BMP280;65462;52.148;7.940;2023-01-31T09:31:43;101017.69;;;4.94
76583;BMP280;65462;52.148;7.940;2023-01-31T09:34:08;101034.69;;;5.01
76583;BMP280;65462;52.148;7.940;2023-01-31T09:36:34;101014.53;;;4.97
76583;BMP280;65462;52.148;7.940;2023-01-31T09:38:59;101017.16;;;5.02
76583;BMP280;65462;52.148;7.940;2023-01-31T09:41:49;101021.56;;;5.06
76583;BMP280;65462;52.148;7.940;2023-01-31T09:44:20;101017.63;;;5.09
76583;BMP280;65462;52.148;7.940;2023-01-31T09:47:05;101021.81;;;5.10
76583;BMP280;65462;52.148;7.940;2023-01-31T09:49:41;101029.69;;;5.10
76583;BMP280;65462;52.148;7.940;2023-01-31T09:52:09;101020.50;;;5.13
76583;BMP280;65462;52.148;7.940;2023-01-31T09:54:37;101015.00;;;5.09
76583;BMP280;65462;52.148;7.940;2023-01-31T10:00:31;100999.88;;;5.06
76583;BMP280;65462;52.148;7.940;2023-01-31T10:06:10;101014.19;;;5.14
76583;BMP280;65462;52.148;7.940;2023-01-31T10:08:48;101031.75;;;5.18
76583;BMP280;65462;52.148;7.940;2023-01-31T10:11:49;101017.06;;;5.17
76583;BMP280;65462;52.148;7.940;2023-01-31T10:15:04;101014.47;;;5.22
76583;BMP280;65462;52.148;7.940;2023-01-31T10:17:44;101004.47;;;5.24
76583;BMP280;65462;52.148;7.940;2023-01-31T10:20:21;100996.59;;;5.24
76583;BMP280;65462;52.148;7.940;2023-01-31T10:26:11;101011.78;;;5.32
76583;BMP280;65462;52.148;7.940;2023-01-31T10:28:20;101005.75;;;5.32
76583;BMP280;65462;52.148;7.940;2023-01-31T10:30:56;101001.03;;;5.34
76583;BMP280;65462;52.148;7.940;2023-01-31T10:33:41;100997.63;;;5.33
76583;BMP280;65462;52.148;7.940;2023-01-31T10:36:21;100983.72;;;5.38
76583;BMP280;65462;52.148;7.940;2023-01-31T10:41:28;100976.59;;;5.43
76583;BMP280;65462;52.148;7.940;2023-01-31T10:44:00;100981.59;;;5.45
76583;BMP280;65462;52.148;7.940;2023-01-31T10:46:27;100972.16;;;5.44
76583;BMP280;65462;52.148;7.940;2023-01-31T10:48:52;100965.31;;;5.43
76583;BMP280;65462;52.148;7.940;2023-01-31T10:54:22;100972.13;;;5.49
76583;BMP280;65462;52.148;7.940;2023-01-31T10:56:50;100954.56;;;5.49
76583;BMP280;65462;52.148;7.940;2023-01-31T10:59:35;100943.81;;;5.46
76583;BMP280;65462;52.148;7.940;2023-01-31T11:02:02;100949.31;;;5.49
76583;BMP280;65462;52.148;7.940;2023-01-31T11:04:34;100940.91;;;5.52
76583;BMP280;65462;52.148;7.940;2023-01-31T11:07:01;100930.97;;;5.54
76583;BMP280;65462;52.148;7.940;2023-01-31T11:09:31;100931.44;;;5.56
76583;BMP280;65462;52.148;7.940;2023-01-31T11:12:02;100922.00;;;5.55
76583;BMP280;65462;52.148;7.940;2023-01-31T11:14:28;100914.13;;;5.60
76583;BMP280;65462;52.148;7.940;2023-01-31T11:17:02;100903.09;;;5.63
76583;BMP280;65462;52.148;7.940;2023-01-31T11:19:34;100915.16;;;5.64
76583;BMP280;65462;52.148;7.940;2023-01-31T11:22:02;100920.81;;;5.71
76583;BMP280;65462;52.148;7.940;2023-01-31T11:24:31;100902.56;;;5.66
76583;BMP280;65462;52.148;7.940;2023-01-31T11:26:58;100918.97;;;5.77
76583;BMP280;65462;52.148;7.940;2023-01-31T11:29:29;100924.97;;;5.83
76583;BMP280;65462;52.148;7.940;2023-01-31T11:31:57;100921.75;;;5.86
76583;BMP280;65462;52.148;7.940;2023-01-31T11:34:26;100917.53;;;5.90
76583;BMP280;65462;52.148;7.940;2023-01-31T11:37:05;100914.09;;;5.94
76583;BMP280;65462;52.148;7.940;2023-01-31T11:39:37;100920.97;;;5.90
76583;BMP280;65462;52.148;7.940;2023-01-31T11:42:05;100920.66;;;5.92
76583;BMP280;65462;52.148;7.940;2023-01-31T11:44:31;100914.38;;;5.93
76583;BMP280;65462;52.148;7.940;2023-01-31T11:46:59;100908.84;;;5.94
76583;BMP280;65462;52.148;7.940;2023-01-31T11:49:32;100908.31;;;5.97
76583;BMP280;65462;52.148;7.940;2023-01-31T11:52:02;100894.44;;;5.97
76583;BMP280;65462;52.148;7.940;2023-01-31T11:54:36;100888.09;;;5.98
76583;BMP280;65462;52.148;7.940;2023-01-31T11:57:01;100882.03;;;6.02
76583;BMP280;65462;52.148;7.940;2023-01-31T11:59:37;100877.56;;;6.03
76583;BMP280;65462;52.148;7.940;2023-01-31T12:02:03;100879.09;;;6.04
76583;BMP280;65462;52.148;7.940;2023-01-31T12:04:33;100866.22;;;6.07
76583;BMP280;65462;52.148;7.940;2023-01-31T12:07:07;100866.53;;;6.06
76583;BMP280;65462;52.148;7.940;2023-01-31T12:09:44;100859.16;;;6.08
76583;BMP280;65462;52.148;7.940;2023-01-31T12:14:48;100842.13;;;6.05
76583;BMP280;65462;52.148;7.940;2023-01-31T12:17:15;100846.16;;;5.98
76583;BMP280;65462;52.148;7.940;2023-01-31T12:22:30;100870.16;;;6.10
76583;BMP280;65462;52.148;7.940;2023-01-31T12:25:01;100864.41;;;6.08
76583;BMP280;65462;52.148;7.940;2023-01-31T12:27:38;100857.06;;;6.10
76583;BMP280;65462;52.148;7.940;2023-01-31T12:30:18;100859.69;;;6.10
76583;BMP280;65462;52.148;7.940;2023-01-31T12:33:08;100850.72;;;6.11
76583;BMP280;65462;52.148;7.940;2023-01-31T12:38:21;100852.84;;;6.09
76583;BMP280;65462;52.148;7.940;2023-01-31T12:41:28;100856.28;;;6.09
76583;BMP280;65462;52.148;7.940;2023-01-31T12:44:05;100845.78;;;6.09
76583;BMP280;65462;52.148;7.940;2023-01-31T12:52:18;100866.00;;;6.04
76583;BMP280;65462;52.148;7.940;2023-01-31T12:55:25;100863.91;;;6.06
76583;BMP280;65462;52.148;7.940;2023-01-31T13:00:45;100867.88;;;6.03
76583;BMP280;65462;52.148;7.940;2023-01-31T13:06:16;100863.50;;;5.94
76583;BMP280;65462;52.148;7.940;2023-01-31T13:08:49;100864.50;;;5.98
76583;BMP280;65462;52.148;7.940;2023-01-31T13:11:23;100863.16;;;6.00
76583;BMP280;65462;52.148;7.940;2023-01-31T13:13:56;100846.75;;;5.90
76583;BMP280;65462;52.148;7.940;2023-01-31T13:16:36;100848.78;;;5.98
76583;BMP280;65462;52.148;7.940;2023-01-31T13:19:06;100845.56;;;6.01
76583;BMP280;65462;52.148;7.940;2023-01-31T13:21:39;100847.72;;;5.99
76583;BMP280;65462;52.148;7.940;2023-01-31T13:24:11;100833.25;;;6.01
76583;BMP280;65462;52.148;7.940;2023-01-31T13:26:42;100835.59;;;6.03
76583;BMP280;65462;52.148;7.940;2023-01-31T13:29:43;100815.69;;;6.02
76583;BMP280;65462;52.148;7.940;2023-01-31T13:34:59;100811.22;;;6.02
76583;BMP280;65462;52.148;7.940;2023-01-31T13:37:28;100814.09;;;6.01
76583;BMP280;65462;52.148;7.940;2023-01-31T13:40:18;100804.94;;;6.03
76583;BMP280;65462;52.148;7.940;2023-01-31T13:42:44;100810.44;;;6.02
76583;BMP280;65462;52.148;7.940;2023-01-31T13:45:20;100804.09;;;6.08
76583;BMP280;65462;52.148;7.940;2023-01-31T13:47:50;100806.22;;;6.06
76583;BMP280;65462;52.148;7.940;2023-01-31T13:52:57;100807.97;;;6.10
76583;BMP280;65462;52.148;7.940;2023-01-31T13:55:38;100793.56;;;6.13
76583;BMP280;65462;52.148;7.940;2023-01-31T13:58:07;100803.97;;;6.18
76583;BMP280;65462;52.148;7.940;2023-01-31T14:00:41;100796.09;;;6.18
76583;BMP280;65462;52.148;7.940;2023-01-31T14:03:13;100802.91;;;6.19
76583;BMP280;65462;52.148;7.940;2023-01-31T14:10:52;100793.13;;;6.24
76583;BMP280;65462;52.148;7.940;2023-01-31T14:13:36;100783.88;;;6.27
76583;BMP280;65462;52.148;7.940;2023-01-31T14:16:02;100786.50;;;6.27
76583;BMP280;65462;52.148;7.940;2023-01-31T14:18:43;100795.41;;;6.31
76583;BMP280;65462;52.148;7.940;2023-01-31T14:23:53;100763.91;;;6.31
76583;BMP280;65462;52.148;7.940;2023-01-31T14:29:15;100782.13;;;6.41
76583;BMP280;65462;52.148;7.940;2023-01-31T14:31:43;100793.41;;;6.42
76583;BMP280;65462;52.148;7.940;2023-01-31T14:34:24;100797.06;;;6.46
76583;BMP280;65462;52.148;7.940;2023-01-31T14:40:33;100796.19;;;6.50
76583;BMP280;65462;52.148;7.940;2023-01-31T14:44:18;100797.66;;;6.56
76583;BMP280;65462;52.148;7.940;2023-01-31T14:48:58;100796.06;;;6.60
76583;BMP280;65462;52.148;7.940;2023-01-31T15:00:00;100805.84;;;6.73
76583;BMP280;65462;52.148;7.940;2023-01-31T15:05:06;100807.13;;;6.76
76583;BMP280;65462;52.148;7.940;2023-01-31T15:07:33;100806.84;;;6.77
76583;BMP280;65462;52.148;7.940;2023-01-31T15:09:58;100812.09;;;6.77
76583;BMP280;65462;52.148;7.940;2023-01-31T15:12:56;100820.94;;;6.81
76583;BMP280;65462;52.148;7.940;2023-01-31T15:15:36;100812.47;;;6.84
76583;BMP280;65462;52.148;7.940;2023-01-31T15:18:23;100819.31;;;6.85
76583;BMP280;65462;52.148;7.940;2023-01-31T15:20:55;100813.00;;;6.86
76583;BMP280;65462;52.148;7.940;2023-01-31T15:23:24;100821.94;;;6.85
76583;BMP280;65462;52.148;7.940;2023-01-31T15:25:50;100810.38;;;6.86
76583;BMP280;65462;52.148;7.940;2023-01-31T15:28:20;100805.13;;;6.86
76583;BMP280;65462;52.148;7.940;2023-01-31T15:30:46;100801.63;;;6.91
76583;BMP280;65462;52.148;7.940;2023-01-31T15:33:20;100796.09;;;6.92
76583;BMP280;65462;52.148;7.940;2023-01-31T15:35:54;100795.50;;;6.95
76583;BMP280;65462;52.148;7.940;2023-01-31T15:44:09;100817.22;;;7.01
76583;BMP280;65462;52.148;7.940;2023-01-31T15:46:35;100797.56;;;6.99
76583;BMP280;65462;52.148;7.940;2023-01-31T15:49:00;100810.66;;;7.04
76583;BMP280;65462;52.148;7.940;2023-01-31T15:51:27;100805.41;;;7.04
76583;BMP280;65462;52.148;7.940;2023-01-31T15:54:03;100806.91;;;7.05
76583;BMP280;65462;52.148;7.940;2023-01-31T15:56:38;100822.69;;;7.05
76583;BMP280;65462;52.148;7.940;2023-01-31T15:59:10;100810.06;;;7.07
76583;BMP280;65462;52.148;7.940;2023-01-31T16:01:36;100812.03;;;7.15
76583;BMP280;65462;52.148;7.940;2023-01-31T16:04:02;100816.81;;;7.13